Time;durP1;ratioP1;P1;durP2;ratioP2;P2;SDS_P1;SDS_P2;PMS_P1;PMS_P2;Temp;Humidity;BMP_temperature;BMP_pressure;BME280_temperature;BME280_humidity;BME280_pressure;Samples;Min_cycle;Max_cycle;Signal;HPM_P1;HPM_P2
2022/04/15 00:02:10;;;;;;;12.18;10.00;;;6.60;99.90;;;;;;4979432;28;93701;-32
2022/04/15 00:04:36;;;;;;;14.85;10.05;;;6.60;99.90;;;;;;4978433;28;93539;-34
2022/04/15 00:07:02;;;;;;;18.83;9.43;;;6.50;99.90;;;;;;4978932;28;94799;-37
2022/04/15 00:09:30;;;;;;;14.50;9.68;;;6.50;99.90;;;;;;4979681;28;95378;-34
2022/04/15 00:12:00;;;;;;;16.77;8.83;;;6.50;99.90;;;;;;4980135;28;94085;-37
2022/04/15 00:14:26;;;;;;;17.70;9.30;;;6.50;99.90;;;;;;4960895;28;93422;-35
2022/04/15 00:16:51;;;;;;;14.98;9.95;;;6.40;99.90;;;;;;4979657;28;94967;-34
2022/04/15 00:19:17;;;;;;;11.60;8.73;;;6.40;99.90;;;;;;4979809;28;95981;-34
2022/04/15 00:21:43;;;;;;;14.35;9.45;;;6.40;99.90;;;;;;4979387;28;93296;-34
2022/04/15 00:24:09;;;;;;;13.27;8.95;;;6.30;99.90;;;;;;4979496;28;92239;-35
2022/04/15 00:26:35;;;;;;;11.35;8.77;;;6.30;99.90;;;;;;4977584;28;95676;-37
2022/04/15 00:29:00;;;;;;;12.38;9.60;;;6.20;99.90;;;;;;5025534;22;95861;-37
2022/04/15 00:31:26;;;;;;;13.70;9.38;;;6.20;99.90;;;;;;4999802;28;93538;-33
2022/04/15 00:33:52;;;;;;;14.43;9.55;;;6.10;99.90;;;;;;4999104;28;92738;-34
2022/04/15 00:36:18;;;;;;;12.02;8.57;;;6.10;99.90;;;;;;4999144;28;95203;-34
2022/04/15 00:38:43;;;;;;;13.52;8.93;;;6.10;99.90;;;;;;4998664;28;95286;-37
2022/04/15 00:41:16;;;;;;;15.00;8.80;;;6.10;99.90;;;;;;4999345;28;93455;-33
2022/04/15 00:43:42;;;;;;;11.20;9.02;;;6.10;99.90;;;;;;4999314;28;93956;-32
2022/04/15 00:46:08;;;;;;;14.68;9.27;;;6.10;99.90;;;;;;4999323;28;94784;-33
2022/04/15 00:48:36;;;;;;;16.40;8.85;;;6.10;99.90;;;;;;4998763;28;93643;-35
2022/04/15 00:51:02;;;;;;;15.18;8.75;;;6.10;99.90;;;;;;4998166;28;94977;-33
2022/04/15 00:53:29;;;;;;;9.20;8.27;;;6.20;99.90;;;;;;4999133;28;94745;-34
2022/04/15 00:56:03;;;;;;;11.40;8.48;;;6.20;99.90;;;;;;4999195;28;94669;-33
2022/04/15 00:58:32;;;;;;;12.93;10.18;;;6.20;99.90;;;;;;4998946;28;94533;-34
2022/04/15 01:00:58;;;;;;;;;;;6.20;99.90;;;;;;4998316;28;93410;-34
2022/04/15 01:03:24;;;;;;;13.73;9.25;;;6.20;99.90;;;;;;5000575;28;93071;-33
2022/04/15 01:05:54;;;;;;;13.88;9.27;;;6.30;99.90;;;;;;4998103;28;94660;-34
2022/04/15 01:08:23;;;;;;;13.20;10.10;;;6.30;99.90;;;;;;4999260;28;94712;-34
2022/04/15 01:10:51;;;;;;;;;;;6.40;99.90;;;;;;4996848;28;94552;-34
2022/04/15 01:13:17;;;;;;;22.30;10.77;;;6.40;99.90;;;;;;4981477;28;94561;-38
2022/04/15 01:15:44;;;;;;;18.52;10.38;;;6.50;99.90;;;;;;4996763;28;95836;-37
2022/04/15 01:18:10;;;;;;;15.90;10.13;;;6.50;99.90;;;;;;4997819;28;97002;-34
2022/04/15 01:20:37;;;;;;;13.38;10.00;;;6.50;99.90;;;;;;4998133;28;94201;-35
2022/04/15 01:23:07;;;;;;;13.18;10.52;;;6.50;99.90;;;;;;4998604;28;94935;-34
2022/04/15 01:25:32;;;;;;;12.90;10.45;;;6.60;99.90;;;;;;4997361;28;94911;-37
2022/04/15 01:27:59;;;;;;;14.93;10.55;;;6.60;99.90;;;;;;4996486;28;94502;-33
2022/04/15 01:30:25;;;;;;;13.15;10.25;;;6.70;99.90;;;;;;4998226;28;94500;-37
2022/04/15 01:32:50;;;;;;;13.82;10.77;;;6.80;99.90;;;;;;4998418;28;92190;-33
2022/04/15 01:35:18;;;;;;;17.55;10.63;;;6.80;99.90;;;;;;4997296;28;94557;-33
2022/04/15 01:37:45;;;;;;;16.05;10.27;;;6.80;99.90;;;;;;4997245;28;94361;-35
2022/04/15 01:40:12;;;;;;;12.95;11.43;;;6.90;99.90;;;;;;4996368;28;94989;-34
2022/04/15 01:42:41;;;;;;;14.15;10.77;;;6.90;99.90;;;;;;4997001;28;93356;-36
2022/04/15 01:45:09;;;;;;;15.18;10.45;;;7.00;99.90;;;;;;4997186;28;95611;-35
2022/04/15 01:47:35;;;;;;;18.97;10.30;;;7.00;99.90;;;;;;4996328;28;94453;-38
2022/04/15 01:50:02;;;;;;;15.68;10.18;;;7.00;99.90;;;;;;4997879;28;92256;-38
2022/04/15 01:52:28;;;;;;;16.08;9.80;;;7.00;99.90;;;;;;4979955;28;94618;-33
2022/04/15 01:54:53;;;;;;;20.80;10.65;;;7.00;99.90;;;;;;4997527;28;94610;-37
2022/04/15 01:57:19;;;;;;;12.45;9.55;;;7.10;99.90;;;;;;4998257;28;94571;-33
2022/04/15 01:59:45;;;;;;;13.57;11.70;;;7.10;99.90;;;;;;4997680;28;94677;-35
2022/04/15 02:02:10;;;;;;;13.10;11.10;;;7.10;99.90;;;;;;4997356;28;93347;-33
2022/04/15 02:04:36;;;;;;;14.07;10.70;;;7.10;99.90;;;;;;4995824;28;95743;-36
2022/04/15 02:07:02;;;;;;;18.13;11.20;;;7.10;99.90;;;;;;4997164;28;95537;-35
2022/04/15 02:09:28;;;;;;;15.35;10.07;;;7.10;99.90;;;;;;4997578;28;92231;-35
2022/04/15 02:11:54;;;;;;;16.52;11.02;;;7.20;99.90;;;;;;4996834;28;94832;-34
2022/04/15 02:14:20;;;;;;;12.73;10.75;;;7.20;99.90;;;;;;4997297;28;95200;-34
2022/04/15 02:16:48;;;;;;;15.00;11.18;;;7.20;99.90;;;;;;4996754;28;95561;-34
2022/04/15 02:19:13;;;;;;;17.73;10.60;;;7.20;99.90;;;;;;4996620;28;93458;-34
2022/04/15 02:21:39;;;;;;;12.60;10.98;;;7.20;99.90;;;;;;4997917;28;93676;-34
2022/04/15 02:24:06;;;;;;;11.35;10.15;;;7.20;99.90;;;;;;4996582;28;94696;-35
2022/04/15 02:26:31;;;;;;;11.98;10.70;;;7.20;99.90;;;;;;4996664;28;94544;-37
2022/04/15 02:28:57;;;;;;;20.90;10.75;;;7.20;99.90;;;;;;4996128;28;93167;-33
2022/04/15 02:31:23;;;;;;;12.93;11.38;;;7.20;99.90;;;;;;4996361;28;94428;-33
2022/04/15 02:33:48;;;;;;;16.75;11.82;;;7.20;99.90;;;;;;4978401;28;94904;-33
2022/04/15 02:36:14;;;;;;;16.60;11.27;;;7.20;99.90;;;;;;4996737;28;94536;-34
2022/04/15 02:38:39;;;;;;;13.15;11.15;;;7.20;99.90;;;;;;4996887;28;92632;-38
2022/04/15 02:41:06;;;;;;;21.83;11.68;;;7.30;99.90;;;;;;4996730;28;94639;-34
2022/04/15 02:43:32;;;;;;;15.52;10.70;;;7.30;99.90;;;;;;4996313;28;95242;-36
2022/04/15 02:46:06;;;;;;;14.73;11.18;;;7.30;99.90;;;;;;4996517;28;95002;-36
2022/04/15 02:48:32;;;;;;;14.88;10.98;;;7.30;99.90;;;;;;4997022;28;94757;-33
2022/04/15 02:50:59;;;;;;;19.35;11.45;;;7.30;99.90;;;;;;4996270;28;92191;-34
2022/04/15 02:53:25;;;;;;;16.27;11.13;;;7.30;99.90;;;;;;4996104;28;95621;-35
2022/04/15 02:55:51;;;;;;;16.05;11.48;;;7.30;99.90;;;;;;4995616;28;95472;-33
2022/04/15 02:58:16;;;;;;;15.00;11.13;;;7.30;99.90;;;;;;4997229;28;93073;-37
2022/04/15 03:00:42;;;;;;;19.58;12.25;;;7.40;99.90;;;;;;4995993;28;94561;-36
2022/04/15 03:03:08;;;;;;;12.60;9.63;;;7.40;99.90;;;;;;4996210;28;94817;-37
2022/04/15 03:05:33;;;;;;;16.85;11.45;;;7.40;99.90;;;;;;4996356;28;94901;-33
2022/04/15 03:07:59;;;;;;;14.15;9.98;;;7.40;99.90;;;;;;4996529;28;93984;-35
2022/04/15 03:10:25;;;;;;;11.25;9.93;;;7.40;99.90;;;;;;4997193;28;92532;-35
2022/04/15 03:12:51;;;;;;;15.10;11.00;;;7.40;99.90;;;;;;4996540;28;94502;-37
2022/04/15 03:15:17;;;;;;;16.65;10.95;;;7.40;99.90;;;;;;4996356;28;95063;-34
2022/04/15 03:17:42;;;;;;;12.75;8.82;;;7.50;99.90;;;;;;4995903;28;94608;-34
2022/04/15 03:20:09;;;;;;;17.45;10.98;;;7.50;99.90;;;;;;4996961;28;94294;-38
2022/04/15 03:22:40;;;;;;;13.90;10.57;;;7.50;99.90;;;;;;4996020;28;95129;-35
2022/04/15 03:25:11;;;;;;;20.23;9.75;;;7.50;99.90;;;;;;4995701;28;94811;-38
2022/04/15 03:27:37;;;;;;;16.70;11.23;;;7.50;99.90;;;;;;4996080;28;93123;-35
2022/04/15 03:30:04;;;;;;;14.65;10.68;;;7.50;99.90;;;;;;4996344;28;94994;-34
2022/04/15 03:32:30;;;;;;;12.37;9.70;;;7.50;99.90;;;;;;4995790;28;94507;-37
2022/04/15 03:34:57;;;;;;;14.98;12.13;;;7.50;99.90;;;;;;5001703;28;94415;-36
2022/04/15 03:37:23;;;;;;;15.25;10.85;;;7.50;99.90;;;;;;5003220;28;94410;-34
2022/04/15 03:39:49;;;;;;;17.25;10.80;;;7.50;99.90;;;;;;4983929;28;92593;-36
2022/04/15 03:42:14;;;;;;;13.27;10.63;;;7.50;99.90;;;;;;5002617;28;95281;-33
2022/04/15 03:44:40;;;;;;;18.60;10.50;;;7.50;99.90;;;;;;5001816;28;95455;-32
2022/04/15 03:47:06;;;;;;;13.93;10.05;;;7.50;99.90;;;;;;5003177;28;92867;-33
2022/04/15 03:49:32;;;;;;;13.05;10.85;;;7.50;99.90;;;;;;5002596;28;93376;-33
2022/04/15 03:51:58;;;;;;;13.15;10.35;;;7.50;99.90;;;;;;5001649;28;95507;-34
2022/04/15 03:54:24;;;;;;;14.27;9.07;;;7.50;99.90;;;;;;5002111;28;94606;-34
2022/04/15 03:56:49;;;;;;;15.15;10.75;;;7.60;99.90;;;;;;5002746;28;93819;-34
2022/04/15 03:59:15;;;;;;;10.55;8.82;;;7.60;99.90;;;;;;5002701;28;94070;-37
2022/04/15 04:01:41;;;;;;;14.05;9.60;;;7.60;99.90;;;;;;5003009;28;94737;-36
2022/04/15 04:04:07;;;;;;;12.05;10.35;;;7.60;99.90;;;;;;5002487;28;94290;-33
2022/04/15 04:06:33;;;;;;;15.18;9.85;;;7.60;99.90;;;;;;5002019;28;93049;-35
2022/04/15 04:08:58;;;;;;;12.88;10.00;;;7.60;99.90;;;;;;5002548;28;94630;-36
2022/04/15 04:11:24;;;;;;;12.27;9.82;;;7.60;99.90;;;;;;5002220;28;94303;-33
2022/04/15 04:13:49;;;;;;;17.10;10.00;;;7.60;99.90;;;;;;5002961;28;94264;-33
2022/04/15 04:16:17;;;;;;;12.82;9.80;;;7.60;99.90;;;;;;5001751;28;93054;-33
2022/04/15 04:18:43;;;;;;;11.67;8.73;;;7.70;99.90;;;;;;5002683;28;93336;-36
2022/04/15 04:21:09;;;;;;;12.52;10.13;;;7.70;99.90;;;;;;5002373;28;95203;-37
2022/04/15 04:23:36;;;;;;;13.32;9.35;;;7.70;99.90;;;;;;5001966;28;94617;-33
2022/04/15 04:26:03;;;;;;;15.48;9.95;;;7.70;99.90;;;;;;5002847;28;92516;-33
2022/04/15 04:28:28;;;;;;;13.25;9.73;;;7.70;99.90;;;;;;5003254;28;93650;-33
2022/04/15 04:30:54;;;;;;;15.05;10.27;;;7.70;99.90;;;;;;5001441;28;95721;-35
2022/04/15 04:33:20;;;;;;;15.50;11.07;;;7.70;99.90;;;;;;5001814;28;94584;-35
2022/04/15 04:35:46;;;;;;;10.98;9.75;;;7.80;99.90;;;;;;5001386;28;92986;-33
2022/04/15 04:38:11;;;;;;;15.95;10.90;;;7.80;99.90;;;;;;5002259;28;93402;-37
2022/04/15 04:40:38;;;;;;;18.33;13.40;;;7.80;99.90;;;;;;4999524;28;94649;-35
2022/04/15 04:43:05;;;;;;;17.13;11.40;;;7.80;99.90;;;;;;4999847;28;94688;-35
2022/04/15 04:45:31;;;;;;;15.90;13.13;;;7.80;99.90;;;;;;4999154;28;93591;-33
2022/04/15 04:47:58;;;;;;;13.68;12.07;;;7.80;99.90;;;;;;4996878;28;93697;-37
2022/04/15 04:50:24;;;;;;;13.07;11.68;;;7.90;99.90;;;;;;4998277;28;94931;-37
2022/04/15 04:52:50;;;;;;;14.75;12.45;;;7.90;99.90;;;;;;4998192;28;95013;-35
2022/04/15 04:55:16;;;;;;;18.38;13.48;;;7.90;99.90;;;;;;4997549;28;94633;-33
2022/04/15 04:57:45;;;;;;;14.18;12.40;;;8.00;99.90;;;;;;4997948;28;94368;-37
2022/04/15 05:00:12;;;;;;;15.02;12.48;;;7.90;99.90;;;;;;4998039;28;93518;-33
2022/04/15 05:02:38;;;;;;;15.35;13.02;;;7.90;99.90;;;;;;4998559;28;95118;-34
2022/04/15 05:05:04;;;;;;;16.30;13.25;;;7.90;99.90;;;;;;4998134;28;94737;-33
2022/04/15 05:07:30;;;;;;;15.20;12.20;;;8.00;99.90;;;;;;4998337;28;94648;-33
2022/04/15 05:09:56;;;;;;;16.75;13.07;;;8.00;99.90;;;;;;4997839;28;94760;-34
2022/04/15 05:12:22;;;;;;;13.40;11.48;;;8.00;99.90;;;;;;4998186;28;94550;-35
2022/04/15 05:14:47;;;;;;;11.88;10.65;;;7.90;99.90;;;;;;4998309;28;92643;-33
2022/04/15 05:17:13;;;;;;;11.65;10.43;;;7.90;99.90;;;;;;4997790;28;94325;-34
2022/04/15 05:19:38;;;;;;;12.50;10.98;;;7.90;99.90;;;;;;4996989;28;95754;-38
2022/04/15 05:22:04;;;;;;;12.15;9.93;;;7.80;99.90;;;;;;4997727;28;95820;-37
2022/04/15 05:24:30;;;;;;;12.30;11.10;;;7.90;99.90;;;;;;4998113;28;94426;-38
2022/04/15 05:26:55;;;;;;;12.68;10.52;;;7.90;99.90;;;;;;4998567;28;94359;-33
2022/04/15 05:29:21;;;;;;;12.27;11.02;;;7.90;99.90;;;;;;4996562;28;94950;-33
2022/04/15 05:31:47;;;;;;;12.30;11.05;;;7.80;99.90;;;;;;4997561;28;94913;-38
2022/04/15 05:34:12;;;;;;;12.52;11.43;;;7.90;99.90;;;;;;4997880;28;94423;-36
2022/04/15 05:36:38;;;;;;;13.02;11.40;;;7.90;99.90;;;;;;4997973;28;92061;-36
2022/04/15 05:39:03;;;;;;;17.80;11.95;;;7.80;99.90;;;;;;4997939;28;94710;-34
2022/04/15 05:41:29;;;;;;;13.25;11.95;;;7.90;99.90;;;;;;4996706;28;94671;-35
2022/04/15 05:43:57;;;;;;;11.50;9.95;;;7.90;99.90;;;;;;4997385;28;93612;-36
2022/04/15 05:46:23;;;;;;;9.77;8.87;;;7.90;99.90;;;;;;4997844;28;94607;-36
2022/04/15 05:48:48;;;;;;;12.48;9.43;;;7.90;99.90;;;;;;4979642;28;94748;-36
2022/04/15 05:51:14;;;;;;;11.02;8.05;;;7.90;99.90;;;;;;4998800;28;94402;-34
2022/04/15 05:53:39;;;;;;;10.25;9.25;;;7.90;99.90;;;;;;4997491;28;93839;-33
2022/04/15 05:56:05;;;;;;;9.93;8.75;;;7.90;99.90;;;;;;4997963;28;93376;-34
2022/04/15 05:58:30;;;;;;;9.00;8.13;;;7.80;99.90;;;;;;4996931;28;94657;-33
2022/04/15 06:00:56;;;;;;;9.13;8.23;;;7.80;99.90;;;;;;4998454;28;94731;-35
2022/04/15 06:03:22;;;;;;;8.85;7.97;;;7.70;99.90;;;;;;4998086;28;92244;-34
2022/04/15 06:05:48;;;;;;;9.50;8.60;;;7.70;99.90;;;;;;4997367;28;94894;-38
2022/04/15 06:08:14;;;;;;;10.05;9.00;;;7.70;99.90;;;;;;4995631;28;95821;-34
2022/04/15 06:10:40;;;;;;;10.60;9.50;;;7.70;99.90;;;;;;4995439;28;95269;-34
2022/04/15 06:13:09;;;;;;;8.90;7.97;;;7.70;99.90;;;;;;4998410;28;94269;-37
2022/04/15 06:15:40;;;;;;;10.52;8.82;;;7.70;99.90;;;;;;4997801;28;92304;-39
2022/04/15 06:18:06;;;;;;;10.13;9.07;;;7.70;99.90;;;;;;4998019;28;94940;-37
2022/04/15 06:20:32;;;;;;;13.38;8.43;;;7.70;99.90;;;;;;4997788;28;94789;-33
2022/04/15 06:22:57;;;;;;;8.63;7.90;;;7.70;99.90;;;;;;4995637;28;92143;-35
2022/04/15 06:25:23;;;;;;;10.10;8.85;;;7.70;99.90;;;;;;4997983;28;93664;-34
2022/04/15 06:27:50;;;;;;;10.23;9.20;;;7.70;99.90;;;;;;4997144;28;94249;-33
2022/04/15 06:30:19;;;;;;;10.83;9.20;;;7.70;99.90;;;;;;4997455;28;94980;-34
2022/04/15 06:32:44;;;;;;;9.73;8.73;;;7.60;99.90;;;;;;4997351;28;95159;-33
2022/04/15 06:35:10;;;;;;;14.88;9.95;;;7.70;99.90;;;;;;4997186;28;93299;-34
2022/04/15 06:37:35;;;;;;;10.70;9.60;;;7.60;99.90;;;;;;4996674;28;94626;-34
2022/04/15 06:40:01;;;;;;;13.35;10.40;;;7.80;99.90;;;;;;4997774;28;95080;-36
2022/04/15 06:42:30;;;;;;;12.05;9.82;;;7.70;99.90;;;;;;4996881;28;93916;-37
2022/04/15 06:44:56;;;;;;;11.70;10.50;;;7.70;99.90;;;;;;4996905;28;92548;-34
2022/04/15 06:47:21;;;;;;;14.52;12.27;;;7.70;99.90;;;;;;4996537;28;94768;-34
2022/04/15 06:49:47;;;;;;;12.45;11.10;;;7.70;99.90;;;;;;4996336;28;94717;-35
2022/04/15 06:52:14;;;;;;;12.75;11.02;;;7.70;99.90;;;;;;4996288;28;94492;-38
2022/04/15 06:54:40;;;;;;;10.60;9.63;;;7.70;99.90;;;;;;4997322;28;93684;-33
2022/04/15 06:57:06;;;;;;;12.07;9.90;;;7.70;99.90;;;;;;4995701;28;96708;-33
2022/04/15 06:59:32;;;;;;;15.05;11.20;;;7.70;99.90;;;;;;4997287;28;95623;-32
2022/04/15 07:01:59;;;;;;;10.70;9.70;;;7.80;99.90;;;;;;4995969;28;94010;-33
2022/04/15 07:04:25;;;;;;;11.82;9.82;;;7.80;99.90;;;;;;4996863;28;93920;-32
2022/04/15 07:06:50;;;;;;;16.08;12.32;;;7.90;99.90;;;;;;4996877;28;94528;-36
2022/04/15 07:09:16;;;;;;;10.07;9.07;;;7.80;99.90;;;;;;4994372;28;95018;-36
2022/04/15 07:11:42;;;;;;;13.27;11.20;;;7.90;99.90;;;;;;4996666;28;93146;-35
2022/04/15 07:14:07;;;;;;;13.52;10.98;;;7.90;99.90;;;;;;4995207;28;93149;-33
2022/04/15 07:16:34;;;;;;;13.90;11.30;;;8.00;99.90;;;;;;4993107;28;95313;-35
2022/04/15 07:19:04;;;;;;;13.45;12.13;;;8.00;99.90;;;;;;4994262;28;94577;-36
2022/04/15 07:21:30;;;;;;;14.38;11.90;;;8.00;99.90;;;;;;4994124;28;93819;-37
2022/04/15 07:23:56;;;;;;;19.58;13.00;;;8.10;99.90;;;;;;4994176;28;94541;-33
2022/04/15 07:26:21;;;;;;;18.02;12.85;;;8.10;99.90;;;;;;4993452;28;94762;-33
2022/04/15 07:28:47;;;;;;;16.00;13.02;;;8.20;99.90;;;;;;4993474;28;94711;-35
2022/04/15 07:31:12;;;;;;;14.80;13.15;;;8.10;99.90;;;;;;4993399;28;93384;-33
2022/04/15 07:33:38;;;;;;;15.90;13.25;;;8.10;99.90;;;;;;4993097;28;93737;-33
2022/04/15 07:36:31;;;;;;;15.55;13.13;;;8.10;99.90;;;;;;4993410;28;96979;-35
2022/04/15 07:38:49;;;;;;;23.10;13.48;;;8.10;99.90;;;;;;4993211;28;94954;-33
2022/04/15 07:41:16;;;;;;;15.50;12.68;;;8.30;99.90;;;;;;4993490;28;93312;-35
2022/04/15 07:43:42;;;;;;;19.60;13.80;;;8.40;99.90;;;;;;4992891;28;94017;-34
2022/04/15 07:46:08;;;;;;;18.02;12.90;;;8.30;99.90;;;;;;4993248;28;94368;-39
2022/04/15 07:48:33;;;;;;;16.75;13.68;;;8.40;99.90;;;;;;4993207;28;95303;-37
2022/04/15 07:50:59;;;;;;;20.40;14.05;;;8.40;99.90;;;;;;4993235;28;94838;-37
2022/04/15 07:53:25;;;;;;;18.50;14.48;;;8.40;99.90;;;;;;4994191;28;93433;-36
2022/04/15 07:55:51;;;;;;;21.52;14.48;;;8.40;99.90;;;;;;4993338;28;94699;-35
2022/04/15 07:58:18;;;;;;;24.48;15.27;;;8.40;99.90;;;;;;4994245;28;94681;-34
2022/04/15 08:00:44;;;;;;;21.83;15.02;;;8.50;99.90;;;;;;4993517;28;92493;-34
2022/04/15 08:03:09;;;;;;;18.55;15.43;;;8.40;99.90;;;;;;4992896;28;92351;-34
2022/04/15 08:05:35;;;;;;;19.02;16.45;;;8.40;99.90;;;;;;4993151;28;94737;-36
2022/04/15 08:08:00;;;;;;;20.67;14.52;;;8.40;99.90;;;;;;4993379;28;94410;-34
2022/04/15 08:10:26;;;;;;;22.42;15.30;;;8.40;99.90;;;;;;4993655;28;94305;-33
2022/04/15 08:12:52;;;;;;;22.70;16.10;;;8.40;99.90;;;;;;4993358;28;93223;-33
2022/04/15 08:15:17;;;;;;;20.25;15.77;;;8.40;99.90;;;;;;4993079;28;94459;-36
2022/04/15 08:17:43;;;;;;;24.88;18.27;;;8.50;99.90;;;;;;4993164;28;94224;-33
2022/04/15 08:20:09;;;;;;;19.90;14.88;;;8.40;99.90;;;;;;5002490;27;93225;-34
2022/04/15 08:22:35;;;;;;;23.27;16.13;;;8.50;99.90;;;;;;4998519;28;93157;-38
2022/04/15 08:25:02;;;;;;;25.17;16.77;;;8.50;99.90;;;;;;4995819;28;95788;-34
2022/04/15 08:27:28;;;;;;;24.05;16.17;;;8.60;99.90;;;;;;4996189;28;94927;-37
2022/04/15 08:29:54;;;;;;;21.30;17.20;;;8.70;99.90;;;;;;4976162;28;92912;-34
2022/04/15 08:32:22;;;;;;;18.42;16.02;;;8.70;99.90;;;;;;4975824;28;92250;-37
2022/04/15 08:34:48;;;;;;;23.23;16.90;;;8.70;99.90;;;;;;4975523;28;95764;-33
2022/04/15 08:37:14;;;;;;;22.48;17.80;;;8.80;99.90;;;;;;4976666;28;95687;-36
2022/04/15 08:39:40;;;;;;;19.85;17.23;;;8.80;99.90;;;;;;4975858;28;92071;-38
2022/04/15 08:42:08;;;;;;;19.63;14.48;;;8.70;99.90;;;;;;4976610;28;94466;-33
2022/04/15 08:44:33;;;;;;;25.00;17.83;;;8.60;99.90;;;;;;4974844;28;94750;-34
2022/04/15 08:47:02;;;;;;;24.45;16.25;;;8.70;99.90;;;;;;4976070;28;95072;-36
2022/04/15 08:49:28;;;;;;;;;;;8.90;99.90;;;;;;4976982;28;94571;-33
2022/04/15 08:51:54;;;;;;;23.48;16.27;;;8.80;99.90;;;;;;4978347;28;91748;-38
2022/04/15 08:54:20;;;;;;;24.17;17.33;;;8.80;99.90;;;;;;4976466;28;96357;-35
2022/04/15 08:56:46;;;;;;;25.33;17.63;;;8.70;99.90;;;;;;4975569;28;94412;-33
2022/04/15 08:59:13;;;;;;;31.85;16.85;;;8.60;99.90;;;;;;4976268;28;95609;-37
2022/04/15 09:01:38;;;;;;;21.67;16.25;;;8.70;99.90;;;;;;4975840;28;93184;-34
2022/04/15 09:04:04;;;;;;;22.42;15.05;;;8.70;99.90;;;;;;4975517;28;94709;-35
2022/04/15 09:06:33;;;;;;;19.33;14.70;;;8.80;99.90;;;;;;4974048;28;94679;-34
2022/04/15 09:09:08;;;;;;;20.20;13.43;;;8.90;99.90;;;;;;4975926;28;93462;-35
2022/04/15 09:11:38;;;;;;;14.98;12.20;;;9.00;99.90;;;;;;4975248;28;94625;-35
2022/04/15 09:14:14;;;;;;;15.20;12.27;;;9.00;99.90;;;;;;4975376;28;95257;-35
2022/04/15 09:16:45;;;;;;;20.55;13.57;;;9.10;99.90;;;;;;4976080;28;92849;-35
2022/04/15 09:19:11;;;;;;;12.00;10.75;;;9.20;99.90;;;;;;4976294;28;94191;-35
2022/04/15 09:21:39;;;;;;;15.05;11.32;;;9.10;99.90;;;;;;4975599;28;93156;-32
2022/04/15 09:24:07;;;;;;;15.33;11.40;;;9.20;99.90;;;;;;4975349;28;96285;-34
2022/04/15 09:26:35;;;;;;;15.18;10.70;;;9.30;99.90;;;;;;4975036;28;95554;-36
2022/04/15 09:29:01;;;;;;;14.80;12.80;;;9.10;99.90;;;;;;4987169;28;93677;-36
2022/04/15 09:31:26;;;;;;;21.08;13.70;;;9.10;99.90;;;;;;4994565;28;94313;-33
2022/04/15 09:33:53;;;;;;;12.73;11.48;;;9.00;99.90;;;;;;4994851;28;94659;-33
2022/04/15 09:36:38;;;;;;;12.52;10.88;;;9.20;99.90;;;;;;4995164;28;94310;-37
2022/04/15 09:39:10;;;;;;;12.98;11.30;;;9.40;99.90;;;;;;4995714;28;92730;-35
2022/04/15 09:41:37;;;;;;;21.50;12.50;;;9.40;99.90;;;;;;4995509;28;92547;-35
2022/04/15 09:44:03;;;;;;;15.10;12.95;;;9.30;99.90;;;;;;4995211;28;94950;-34
2022/04/15 09:46:30;;;;;;;13.00;11.73;;;9.30;99.90;;;;;;4994885;28;93734;-34
2022/04/15 09:49:06;;;;;;;17.00;12.70;;;9.40;99.90;;;;;;4995177;28;93110;-35
2022/04/15 09:51:36;;;;;;;16.63;12.40;;;9.50;99.90;;;;;;4995486;28;94651;-36
2022/04/15 09:54:04;;;;;;;17.85;12.98;;;9.50;99.90;;;;;;4995749;28;95753;-35
2022/04/15 09:56:37;;;;;;;16.87;11.87;;;9.70;99.90;;;;;;4994940;28;95306;-36
2022/04/15 09:59:08;;;;;;;16.73;12.98;;;9.80;99.90;;;;;;4995865;28;92126;-33
2022/04/15 10:01:45;;;;;;;14.95;12.27;;;9.90;99.90;;;;;;4994694;28;93376;-38
2022/04/15 10:04:12;;;;;;;15.70;12.57;;;9.80;99.90;;;;;;4977420;28;93494;-35
2022/04/15 10:06:39;;;;;;;12.10;10.68;;;10.00;99.90;;;;;;4994722;28;95093;-35
2022/04/15 10:09:06;;;;;;;21.95;12.05;;;10.20;99.90;;;;;;4995162;28;94621;-34
2022/04/15 10:11:35;;;;;;;13.00;11.73;;;10.20;99.90;;;;;;4994469;28;93730;-38
2022/04/15 10:14:02;;;;;;;13.25;10.55;;;10.30;99.90;;;;;;4994613;28;95648;-36
2022/04/15 10:16:30;;;;;;;13.77;10.98;;;10.50;99.90;;;;;;4994761;28;95431;-37
2022/04/15 10:18:58;;;;;;;12.15;10.50;;;10.70;99.90;;;;;;4994720;28;94270;-37
2022/04/15 10:21:24;;;;;;;14.13;11.07;;;10.70;99.90;;;;;;4994431;28;92543;-36
2022/04/15 10:23:51;;;;;;;11.38;10.25;;;10.40;99.90;;;;;;4994520;28;95223;-33
2022/04/15 10:26:20;;;;;;;16.60;10.60;;;10.40;99.90;;;;;;4994821;28;96208;-37
2022/04/15 10:28:48;;;;;;;13.95;10.48;;;10.50;99.90;;;;;;4994544;28;93631;-34
2022/04/15 10:31:17;;;;;;;14.20;10.15;;;10.60;99.90;;;;;;4994281;28;93349;-34
2022/04/15 10:33:49;;;;;;;11.13;9.73;;;10.50;99.90;;;;;;4994035;28;95113;-33
2022/04/15 10:36:16;;;;;;;16.50;11.13;;;10.60;99.90;;;;;;4994541;28;94384;-36
2022/04/15 10:39:03;;;;;;;12.90;10.07;;;10.50;99.90;;;;;;4993795;28;93155;-33
2022/04/15 10:41:51;;;;;;;18.80;10.80;;;10.60;99.90;;;;;;4993811;28;93412;-37
2022/04/15 10:44:48;;;;;;;14.25;9.15;;;10.40;99.90;;;;;;4995007;28;94705;-36
2022/04/15 10:47:17;;;;;;;15.07;10.52;;;10.30;99.90;;;;;;4990811;28;94453;-34
2022/04/15 10:49:54;;;;;;;13.88;11.48;;;10.30;99.90;;;;;;4994294;28;94585;-39
2022/04/15 10:52:24;;;;;;;16.00;11.73;;;10.40;99.90;;;;;;4994833;28;93135;-37
2022/04/15 10:55:06;;;;;;;12.52;11.23;;;10.30;99.90;;;;;;4993957;28;95254;-35
2022/04/15 10:57:40;;;;;;;14.40;11.40;;;10.50;99.90;;;;;;4994038;28;94481;-37
2022/04/15 11:03:21;;;;;;;13.35;10.50;;;10.60;99.90;;;;;;4994156;28;93098;-33
2022/04/15 11:05:48;;;;;;;11.93;10.73;;;10.70;99.90;;;;;;4992565;28;96062;-37
2022/04/15 11:08:16;;;;;;;16.88;12.43;;;10.60;99.90;;;;;;4994664;28;95256;-35
2022/04/15 11:11:03;;;;;;;14.05;11.07;;;10.80;99.90;;;;;;4993198;28;94297;-35
2022/04/15 11:13:32;;;;;;;11.68;9.98;;;10.60;99.90;;;;;;4993941;28;93794;-35
2022/04/15 11:16:14;;;;;;;12.68;10.77;;;10.50;99.90;;;;;;4993013;28;94565;-37
2022/04/15 11:18:43;;;;;;;10.82;9.65;;;10.60;99.90;;;;;;4994503;28;94133;-37
2022/04/15 11:21:18;;;;;;;11.20;10.13;;;10.60;99.90;;;;;;4995220;28;92571;-34
2022/04/15 11:23:47;;;;;;;13.32;9.88;;;10.70;99.90;;;;;;4994054;28;92763;-33
2022/04/15 11:26:15;;;;;;;13.48;10.18;;;10.70;99.90;;;;;;4994056;28;94686;-35
2022/04/15 11:28:43;;;;;;;11.73;10.32;;;10.70;99.90;;;;;;4993226;28;94986;-37
2022/04/15 11:31:19;;;;;;;;;;;10.60;99.90;;;;;;4993823;28;93722;-38
2022/04/15 11:33:45;;;;;;;13.30;11.80;;;10.50;99.90;;;;;;4995528;28;93843;-36
2022/04/15 11:36:10;;;;;;;15.07;11.98;;;10.60;99.90;;;;;;4992793;28;94841;-37
2022/04/15 11:38:36;;;;;;;14.55;12.23;;;10.30;99.90;;;;;;4993616;28;94739;-35
2022/04/15 11:41:02;;;;;;;13.07;11.70;;;10.30;99.90;;;;;;4993314;28;94538;-34
2022/04/15 11:43:27;;;;;;;13.00;10.93;;;10.40;99.90;;;;;;4993824;28;92691;-35
2022/04/15 11:45:53;;;;;;;12.68;10.77;;;10.50;99.90;;;;;;4974285;28;94704;-36
2022/04/15 11:48:26;;;;;;;15.07;9.13;;;10.40;99.90;;;;;;4993421;28;94898;-37
2022/04/15 11:50:53;;;;;;;12.23;10.60;;;10.50;99.90;;;;;;4993784;28;93369;-34
2022/04/15 11:53:20;;;;;;;10.27;9.37;;;10.60;99.90;;;;;;4993234;28;94395;-37
2022/04/15 11:55:49;;;;;;;14.48;11.43;;;10.40;99.90;;;;;;4995397;28;95763;-35
2022/04/15 11:58:15;;;;;;;11.77;10.48;;;10.40;99.90;;;;;;4997028;28;95714;-34
2022/04/15 12:00:41;;;;;;;13.68;10.68;;;10.50;99.90;;;;;;4996003;28;92390;-36
2022/04/15 12:03:10;;;;;;;15.88;10.07;;;10.50;99.90;;;;;;4996718;28;94585;-34
2022/04/15 12:05:36;;;;;;;15.48;10.25;;;10.60;99.90;;;;;;4996802;28;94980;-33
2022/04/15 12:08:01;;;;;;;13.55;9.90;;;10.70;99.90;;;;;;4996841;28;95554;-33
2022/04/15 12:10:29;;;;;;;12.32;9.88;;;10.90;99.90;;;;;;4997586;28;93201;-33
2022/04/15 12:12:54;;;;;;;12.73;10.50;;;10.80;99.90;;;;;;4997322;28;93215;-36
2022/04/15 12:15:25;;;;;;;15.13;10.90;;;10.50;99.90;;;;;;4995696;28;96930;-33
2022/04/15 12:17:52;;;;;;;11.77;10.48;;;10.50;99.90;;;;;;4977951;28;94585;-35
2022/04/15 12:20:18;;;;;;;11.13;10.02;;;10.50;99.90;;;;;;4996272;28;93290;-36
2022/04/15 12:22:44;;;;;;;15.38;10.60;;;10.60;99.90;;;;;;4996474;28;92721;-37
2022/04/15 12:25:17;;;;;;;12.02;10.70;;;10.50;99.90;;;;;;4996022;28;96419;-35
2022/04/15 12:27:45;;;;;;;19.15;9.30;;;10.50;99.90;;;;;;5030819;22;94501;-33
2022/04/15 12:30:16;;;;;;;12.00;10.65;;;10.20;99.90;;;;;;4955854;28;93595;-33
2022/04/15 12:32:43;;;;;;;20.15;11.35;;;10.10;99.90;;;;;;4956940;28;93894;-34
2022/04/15 12:35:11;;;;;;;18.75;11.70;;;10.30;99.90;;;;;;4956470;28;94713;-35
2022/04/15 12:37:57;;;;;;;13.40;11.93;;;10.20;99.90;;;;;;4956401;28;93104;-33
2022/04/15 12:40:24;;;;;;;13.88;12.50;;;10.20;99.90;;;;;;4956709;28;93350;-34
2022/04/15 12:42:51;;;;;;;13.32;11.25;;;10.20;99.90;;;;;;4956553;28;93509;-33